sensor_id;sensor_type;location;lat;lon;timestamp;temperature;humidity
15386;DHT22;7791;47.246;9.648;2022-09-09T00:03:18;17.60;99.90
15386;DHT22;7791;47.246;9.648;2022-09-09T00:05:50;17.60;99.90
15386;DHT22;7791;47.246;9.648;2022-09-09T00:08:27;17.60;99.90
15386;DHT22;7791;47.246;9.648;2022-09-09T00:10:59;17.60;99.90
15386;DHT22;7791;47.246;9.648;2022-09-09T00:13:30;17.50;99.90
15386;DHT22;7791;47.246;9.648;2022-09-09T00:22:35;17.50;99.90
15386;DHT22;7791;47.246;9.648;2022-09-09T00:25:10;17.50;99.90
15386;DHT22;7791;47.246;9.648;2022-09-09T00:27:43;17.50;99.90
15386;DHT22;7791;47.246;9.648;2022-09-09T00:39:25;17.40;99.90
15386;DHT22;7791;47.246;9.648;2022-09-09T00:42:10;17.50;99.90
15386;DHT22;7791;47.246;9.648;2022-09-09T00:44:39;17.50;99.90
15386;DHT22;7791;47.246;9.648;2022-09-09T00:47:17;17.50;99.90
15386;DHT22;7791;47.246;9.648;2022-09-09T00:49:54;17.50;99.90
15386;DHT22;7791;47.246;9.648;2022-09-09T00:52:31;17.40;99.90
15386;DHT22;7791;47.246;9.648;2022-09-09T00:55:05;17.40;99.90
15386;DHT22;7791;47.246;9.648;2022-09-09T00:57:35;17.40;99.90
15386;DHT22;7791;47.246;9.648;2022-09-09T01:03:21;17.40;99.90
15386;DHT22;7791;47.246;9.648;2022-09-09T01:05:53;17.30;99.90
15386;DHT22;7791;47.246;9.648;2022-09-09T01:08:35;17.20;99.90
15386;DHT22;7791;47.246;9.648;2022-09-09T01:11:02;17.10;99.90
15386;DHT22;7791;47.246;9.648;2022-09-09T01:13:32;17.20;99.90
15386;DHT22;7791;47.246;9.648;2022-09-09T01:19:03;17.20;99.90
15386;DHT22;7791;47.246;9.648;2022-09-09T01:21:38;17.20;99.90
15386;DHT22;7791;47.246;9.648;2022-09-09T01:24:19;17.10;99.90
15386;DHT22;7791;47.246;9.648;2022-09-09T01:26:49;17.00;99.90
15386;DHT22;7791;47.246;9.648;2022-09-09T01:29:17;16.90;99.90
15386;DHT22;7791;47.246;9.648;2022-09-09T01:31:53;16.90;99.90
15386;DHT22;7791;47.246;9.648;2022-09-09T01:34:21;16.80;99.90
15386;DHT22;7791;47.246;9.648;2022-09-09T01:36:51;16.80;99.90
15386;DHT22;7791;47.246;9.648;2022-09-09T01:39:19;16.80;99.90
15386;DHT22;7791;47.246;9.648;2022-09-09T01:41:47;16.70;99.90
15386;DHT22;7791;47.246;9.648;2022-09-09T01:44:13;16.70;99.90
15386;DHT22;7791;47.246;9.648;2022-09-09T01:49:42;16.60;99.90
15386;DHT22;7791;47.246;9.648;2022-09-09T01:52:08;16.30;99.90
15386;DHT22;7791;47.246;9.648;2022-09-09T01:54:34;16.30;99.90
15386;DHT22;7791;47.246;9.648;2022-09-09T01:57:06;16.20;99.90
15386;DHT22;7791;47.246;9.648;2022-09-09T01:59:48;16.10;99.90
15386;DHT22;7791;47.246;9.648;2022-09-09T02:08:28;15.80;99.90
15386;DHT22;7791;47.246;9.648;2022-09-09T02:11:03;15.70;99.90
15386;DHT22;7791;47.246;9.648;2022-09-09T02:13:34;15.70;99.90
15386;DHT22;7791;47.246;9.648;2022-09-09T02:16:03;15.60;99.90
15386;DHT22;7791;47.246;9.648;2022-09-09T02:18:50;15.60;99.90
15386;DHT22;7791;47.246;9.648;2022-09-09T02:21:17;15.60;99.90
15386;DHT22;7791;47.246;9.648;2022-09-09T02:23:44;15.50;99.90
15386;DHT22;7791;47.246;9.648;2022-09-09T02:26:13;15.50;99.90
15386;DHT22;7791;47.246;9.648;2022-09-09T02:28:42;15.50;99.90
15386;DHT22;7791;47.246;9.648;2022-09-09T02:31:08;15.50;99.90
15386;DHT22;7791;47.246;9.648;2022-09-09T02:36:38;15.50;99.90
15386;DHT22;7791;47.246;9.648;2022-09-09T02:39:08;15.60;99.90
15386;DHT22;7791;47.246;9.648;2022-09-09T02:41:37;15.50;99.90
15386;DHT22;7791;47.246;9.648;2022-09-09T02:44:10;15.40;99.90
15386;DHT22;7791;47.246;9.648;2022-09-09T02:47:07;15.20;99.90
15386;DHT22;7791;47.246;9.648;2022-09-09T02:50:02;15.00;99.90
15386;DHT22;7791;47.246;9.648;2022-09-09T02:52:36;15.00;99.90
15386;DHT22;7791;47.246;9.648;2022-09-09T02:55:08;14.90;99.90
15386;DHT22;7791;47.246;9.648;2022-09-09T02:57:37;14.70;99.90
15386;DHT22;7791;47.246;9.648;2022-09-09T03:00:09;14.60;99.90
15386;DHT22;7791;47.246;9.648;2022-09-09T03:06:09;14.50;99.90
15386;DHT22;7791;47.246;9.648;2022-09-09T03:08:36;14.50;99.90
15386;DHT22;7791;47.246;9.648;2022-09-09T03:11:02;14.40;99.90
15386;DHT22;7791;47.246;9.648;2022-09-09T03:13:28;14.40;99.90
15386;DHT22;7791;47.246;9.648;2022-09-09T03:15:57;14.40;99.90
15386;DHT22;7791;47.246;9.648;2022-09-09T03:24:28;14.20;99.90
15386;DHT22;7791;47.246;9.648;2022-09-09T03:26:54;14.20;99.90
15386;DHT22;7791;47.246;9.648;2022-09-09T03:29:20;14.20;99.90
15386;DHT22;7791;47.246;9.648;2022-09-09T03:31:49;14.20;99.90
15386;DHT22;7791;47.246;9.648;2022-09-09T03:34:14;14.20;99.90
15386;DHT22;7791;47.246;9.648;2022-09-09T03:36:40;14.30;99.90
15386;DHT22;7791;47.246;9.648;2022-09-09T03:39:06;14.40;99.90
15386;DHT22;7791;47.246;9.648;2022-09-09T03:41:33;14.50;99.90
15386;DHT22;7791;47.246;9.648;2022-09-09T03:43:59;14.60;99.90
15386;DHT22;7791;47.246;9.648;2022-09-09T03:46:26;14.70;99.90
15386;DHT22;7791;47.246;9.648;2022-09-09T03:48:53;14.70;99.90
15386;DHT22;7791;47.246;9.648;2022-09-09T03:51:19;14.70;99.90
15386;DHT22;7791;47.246;9.648;2022-09-09T03:53:45;14.80;99.90
15386;DHT22;7791;47.246;9.648;2022-09-09T03:56:11;14.90;99.90
15386;DHT22;7791;47.246;9.648;2022-09-09T03:58:38;14.90;99.90
15386;DHT22;7791;47.246;9.648;2022-09-09T04:01:07;15.00;99.90
15386;DHT22;7791;47.246;9.648;2022-09-09T04:03:33;15.10;99.90
15386;DHT22;7791;47.246;9.648;2022-09-09T04:09:04;15.10;99.90
15386;DHT22;7791;47.246;9.648;2022-09-09T04:11:33;15.10;99.90
15386;DHT22;7791;47.246;9.648;2022-09-09T04:14:01;15.10;99.90
15386;DHT22;7791;47.246;9.648;2022-09-09T04:16:28;15.00;99.90
15386;DHT22;7791;47.246;9.648;2022-09-09T04:18:53;15.00;99.90
15386;DHT22;7791;47.246;9.648;2022-09-09T04:30:29;15.20;99.90
15386;DHT22;7791;47.246;9.648;2022-09-09T04:32:56;15.20;99.90
15386;DHT22;7791;47.246;9.648;2022-09-09T04:38:25;15.30;99.90
15386;DHT22;7791;47.246;9.648;2022-09-09T04:40:52;15.30;99.90
15386;DHT22;7791;47.246;9.648;2022-09-09T04:43:18;15.30;99.90
15386;DHT22;7791;47.246;9.648;2022-09-09T04:45:48;15.30;99.90
15386;DHT22;7791;47.246;9.648;2022-09-09T04:48:14;15.40;99.90
15386;DHT22;7791;47.246;9.648;2022-09-09T04:57:14;15.20;99.90
15386;DHT22;7791;47.246;9.648;2022-09-09T04:59:40;15.20;99.90
15386;DHT22;7791;47.246;9.648;2022-09-09T05:02:07;15.10;99.90
15386;DHT22;7791;47.246;9.648;2022-09-09T05:04:33;15.00;99.90
15386;DHT22;7791;47.246;9.648;2022-09-09T05:10:22;15.00;99.90
15386;DHT22;7791;47.246;9.648;2022-09-09T05:12:52;15.10;99.90
15386;DHT22;7791;47.246;9.648;2022-09-09T05:15:22;15.20;99.90
15386;DHT22;7791;47.246;9.648;2022-09-09T05:17:49;15.20;99.90
15386;DHT22;7791;47.246;9.648;2022-09-09T05:20:15;15.30;99.90
15386;DHT22;7791;47.246;9.648;2022-09-09T05:25:43;15.60;99.90
15386;DHT22;7791;47.246;9.648;2022-09-09T05:28:09;15.60;99.90
15386;DHT22;7791;47.246;9.648;2022-09-09T05:30:35;15.60;99.90
15386;DHT22;7791;47.246;9.648;2022-09-09T05:33:03;15.80;99.90
15386;DHT22;7791;47.246;9.648;2022-09-09T05:35:29;15.90;99.90
15386;DHT22;7791;47.246;9.648;2022-09-09T05:37:59;15.90;99.90
15386;DHT22;7791;47.246;9.648;2022-09-09T05:40:25;16.00;99.90
15386;DHT22;7791;47.246;9.648;2022-09-09T05:42:51;16.00;99.90
15386;DHT22;7791;47.246;9.648;2022-09-09T05:45:17;16.10;99.90
15386;DHT22;7791;47.246;9.648;2022-09-09T05:47:43;16.20;99.90
15386;DHT22;7791;47.246;9.648;2022-09-09T05:50:11;16.20;99.90
15386;DHT22;7791;47.246;9.648;2022-09-09T05:53:04;16.10;99.90
15386;DHT22;7791;47.246;9.648;2022-09-09T05:55:30;16.20;99.90
15386;DHT22;7791;47.246;9.648;2022-09-09T05:57:56;16.30;99.90
15386;DHT22;7791;47.246;9.648;2022-09-09T06:00:22;16.10;99.90
15386;DHT22;7791;47.246;9.648;2022-09-09T06:02:51;16.10;99.90
15386;DHT22;7791;47.246;9.648;2022-09-09T06:05:19;16.30;99.90
15386;DHT22;7791;47.246;9.648;2022-09-09T06:07:45;16.40;99.90
15386;DHT22;7791;47.246;9.648;2022-09-09T06:10:12;16.50;99.90
15386;DHT22;7791;47.246;9.648;2022-09-09T06:12:38;16.60;99.90
15386;DHT22;7791;47.246;9.648;2022-09-09T06:15:05;16.70;99.90
15386;DHT22;7791;47.246;9.648;2022-09-09T06:17:30;16.80;99.90
15386;DHT22;7791;47.246;9.648;2022-09-09T06:19:57;17.00;99.90
15386;DHT22;7791;47.246;9.648;2022-09-09T06:22:25;17.10;99.90
15386;DHT22;7791;47.246;9.648;2022-09-09T06:24:51;17.00;99.90
15386;DHT22;7791;47.246;9.648;2022-09-09T06:27:17;17.20;99.90
15386;DHT22;7791;47.246;9.648;2022-09-09T06:29:42;17.40;99.90
15386;DHT22;7791;47.246;9.648;2022-09-09T06:32:08;17.70;99.90
15386;DHT22;7791;47.246;9.648;2022-09-09T06:34:35;17.90;99.90
15386;DHT22;7791;47.246;9.648;2022-09-09T06:37:37;18.00;99.90
15386;DHT22;7791;47.246;9.648;2022-09-09T06:40:03;18.20;99.90
15386;DHT22;7791;47.246;9.648;2022-09-09T06:42:29;18.30;99.90
15386;DHT22;7791;47.246;9.648;2022-09-09T06:44:56;18.40;99.90
15386;DHT22;7791;47.246;9.648;2022-09-09T06:47:22;18.50;99.90
15386;DHT22;7791;47.246;9.648;2022-09-09T06:49:47;18.40;99.90
15386;DHT22;7791;47.246;9.648;2022-09-09T06:52:14;18.40;99.90
15386;DHT22;7791;47.246;9.648;2022-09-09T06:54:41;18.60;99.90
15386;DHT22;7791;47.246;9.648;2022-09-09T06:57:07;18.90;99.90
15386;DHT22;7791;47.246;9.648;2022-09-09T06:59:33;19.00;99.90
15386;DHT22;7791;47.246;9.648;2022-09-09T07:01:58;19.10;99.90
15386;DHT22;7791;47.246;9.648;2022-09-09T07:04:24;18.90;99.90
15386;DHT22;7791;47.246;9.648;2022-09-09T07:06:50;18.90;99.90
15386;DHT22;7791;47.246;9.648;2022-09-09T07:12:40;19.20;99.90
15386;DHT22;7791;47.246;9.648;2022-09-09T07:15:06;19.40;99.90
15386;DHT22;7791;47.246;9.648;2022-09-09T07:17:33;19.70;99.90
15386;DHT22;7791;47.246;9.648;2022-09-09T07:19:59;19.80;99.90
15386;DHT22;7791;47.246;9.648;2022-09-09T07:22:25;19.80;99.90
15386;DHT22;7791;47.246;9.648;2022-09-09T07:24:50;20.20;99.90
15386;DHT22;7791;47.246;9.648;2022-09-09T07:27:16;20.60;99.90
15386;DHT22;7791;47.246;9.648;2022-09-09T07:29:44;20.90;99.90
15386;DHT22;7791;47.246;9.648;2022-09-09T07:32:10;21.20;99.90
15386;DHT22;7791;47.246;9.648;2022-09-09T07:34:36;21.60;99.90
15386;DHT22;7791;47.246;9.648;2022-09-09T07:37:02;21.80;99.90
15386;DHT22;7791;47.246;9.648;2022-09-09T07:39:33;21.70;99.90
15386;DHT22;7791;47.246;9.648;2022-09-09T07:41:59;21.60;99.90
15386;DHT22;7791;47.246;9.648;2022-09-09T07:44:25;22.10;99.90
15386;DHT22;7791;47.246;9.648;2022-09-09T07:57:40;21.60;99.90
15386;DHT22;7791;47.246;9.648;2022-09-09T08:00:07;21.00;99.90
15386;DHT22;7791;47.246;9.648;2022-09-09T08:02:33;20.50;99.90
15386;DHT22;7791;47.246;9.648;2022-09-09T08:05:00;20.20;99.90
15386;DHT22;7791;47.246;9.648;2022-09-09T08:07:26;20.00;99.90
15386;DHT22;7791;47.246;9.648;2022-09-09T08:09:51;20.00;99.90
15386;DHT22;7791;47.246;9.648;2022-09-09T08:12:17;20.00;99.90
15386;DHT22;7791;47.246;9.648;2022-09-09T08:14:44;20.10;99.90
15386;DHT22;7791;47.246;9.648;2022-09-09T08:17:11;20.10;99.90
15386;DHT22;7791;47.246;9.648;2022-09-09T08:19:37;19.80;99.90
15386;DHT22;7791;47.246;9.648;2022-09-09T08:22:02;18.90;99.90
15386;DHT22;7791;47.246;9.648;2022-09-09T08:30:35;18.10;99.90
15386;DHT22;7791;47.246;9.648;2022-09-09T08:33:01;17.90;99.90
15386;DHT22;7791;47.246;9.648;2022-09-09T08:35:27;17.80;99.90
15386;DHT22;7791;47.246;9.648;2022-09-09T08:37:54;17.60;99.90
15386;DHT22;7791;47.246;9.648;2022-09-09T08:43:23;17.70;99.90
15386;DHT22;7791;47.246;9.648;2022-09-09T08:45:57;17.50;99.90
15386;DHT22;7791;47.246;9.648;2022-09-09T08:48:38;17.20;99.90
15386;DHT22;7791;47.246;9.648;2022-09-09T08:51:08;17.00;99.90
15386;DHT22;7791;47.246;9.648;2022-09-09T08:53:38;16.90;99.90
15386;DHT22;7791;47.246;9.648;2022-09-09T08:56:11;16.90;99.90
15386;DHT22;7791;47.246;9.648;2022-09-09T08:58:43;16.80;99.90
15386;DHT22;7791;47.246;9.648;2022-09-09T09:01:26;16.60;99.90
15386;DHT22;7791;47.246;9.648;2022-09-09T09:04:02;16.30;99.90
15386;DHT22;7791;47.246;9.648;2022-09-09T09:06:40;16.20;99.90
15386;DHT22;7791;47.246;9.648;2022-09-09T09:09:13;16.30;99.90
15386;DHT22;7791;47.246;9.648;2022-09-09T09:11:47;16.30;99.90
15386;DHT22;7791;47.246;9.648;2022-09-09T09:14:18;16.30;99.90
15386;DHT22;7791;47.246;9.648;2022-09-09T09:16:51;16.20;99.90
15386;DHT22;7791;47.246;9.648;2022-09-09T09:19:18;16.30;99.90
15386;DHT22;7791;47.246;9.648;2022-09-09T09:21:49;16.40;99.90
15386;DHT22;7791;47.246;9.648;2022-09-09T09:24:19;16.50;99.90
15386;DHT22;7791;47.246;9.648;2022-09-09T09:26:46;16.60;99.90
15386;DHT22;7791;47.246;9.648;2022-09-09T09:29:15;16.70;99.90
15386;DHT22;7791;47.246;9.648;2022-09-09T09:31:55;16.80;99.90
15386;DHT22;7791;47.246;9.648;2022-09-09T09:34:25;16.90;99.90
15386;DHT22;7791;47.246;9.648;2022-09-09T09:36:54;17.10;99.90
15386;DHT22;7791;47.246;9.648;2022-09-09T09:39:27;17.40;99.90
15386;DHT22;7791;47.246;9.648;2022-09-09T09:41:53;17.60;99.90
15386;DHT22;7791;47.246;9.648;2022-09-09T09:44:23;17.70;99.90
15386;DHT22;7791;47.246;9.648;2022-09-09T09:46:49;17.90;99.90
15386;DHT22;7791;47.246;9.648;2022-09-09T09:49:16;18.00;99.90
15386;DHT22;7791;47.246;9.648;2022-09-09T09:51:42;18.00;99.90
15386;DHT22;7791;47.246;9.648;2022-09-09T09:54:26;18.10;99.90
15386;DHT22;7791;47.246;9.648;2022-09-09T09:57:16;18.30;99.90
15386;DHT22;7791;47.246;9.648;2022-09-09T09:59:42;18.40;99.90
15386;DHT22;7791;47.246;9.648;2022-09-09T10:02:19;18.50;99.90
15386;DHT22;7791;47.246;9.648;2022-09-09T10:04:47;18.70;99.90
15386;DHT22;7791;47.246;9.648;2022-09-09T10:07:17;18.90;99.90
15386;DHT22;7791;47.246;9.648;2022-09-09T10:09:42;19.20;99.90
15386;DHT22;7791;47.246;9.648;2022-09-09T10:12:16;19.40;99.90
15386;DHT22;7791;47.246;9.648;2022-09-09T10:14:49;19.70;99.90
15386;DHT22;7791;47.246;9.648;2022-09-09T10:17:36;19.90;99.90
15386;DHT22;7791;47.246;9.648;2022-09-09T10:20:21;20.20;99.90
15386;DHT22;7791;47.246;9.648;2022-09-09T10:22:52;20.10;99.90
15386;DHT22;7791;47.246;9.648;2022-09-09T10:25:32;19.90;99.90
15386;DHT22;7791;47.246;9.648;2022-09-09T10:28:27;19.70;99.90
15386;DHT22;7791;47.246;9.648;2022-09-09T10:31:07;19.60;99.90
15386;DHT22;7791;47.246;9.648;2022-09-09T10:33:42;19.50;99.90
15386;DHT22;7791;47.246;9.648;2022-09-09T10:36:13;19.40;99.90
15386;DHT22;7791;47.246;9.648;2022-09-09T10:38:43;19.40;99.90
15386;DHT22;7791;47.246;9.648;2022-09-09T10:41:22;19.40;99.90
15386;DHT22;7791;47.246;9.648;2022-09-09T10:44:11;19.20;99.90
15386;DHT22;7791;47.246;9.648;2022-09-09T10:46:47;19.50;99.90
15386;DHT22;7791;47.246;9.648;2022-09-09T10:49:21;19.50;99.90
15386;DHT22;7791;47.246;9.648;2022-09-09T10:51:57;19.80;99.90
15386;DHT22;7791;47.246;9.648;2022-09-09T10:54:36;19.80;99.90
15386;DHT22;7791;47.246;9.648;2022-09-09T10:57:12;19.90;99.90
15386;DHT22;7791;47.246;9.648;2022-09-09T10:59:41;20.30;99.90
15386;DHT22;7791;47.246;9.648;2022-09-09T11:02:14;20.40;99.90
15386;DHT22;7791;47.246;9.648;2022-09-09T11:04:45;20.80;99.90
15386;DHT22;7791;47.246;9.648;2022-09-09T11:07:24;21.20;99.90
15386;DHT22;7791;47.246;9.648;2022-09-09T11:09:58;21.40;99.90
15386;DHT22;7791;47.246;9.648;2022-09-09T11:12:26;21.50;99.90
15386;DHT22;7791;47.246;9.648;2022-09-09T11:14:57;21.70;99.90
15386;DHT22;7791;47.246;9.648;2022-09-09T11:17:29;21.40;99.90
15386;DHT22;7791;47.246;9.648;2022-09-09T11:19:58;21.50;99.90
15386;DHT22;7791;47.246;9.648;2022-09-09T11:22:29;21.80;99.90
15386;DHT22;7791;47.246;9.648;2022-09-09T11:24:59;22.70;99.90
15386;DHT22;7791;47.246;9.648;2022-09-09T11:27:39;23.70;99.90
15386;DHT22;7791;47.246;9.648;2022-09-09T11:30:18;24.60;99.90
15386;DHT22;7791;47.246;9.648;2022-09-09T11:36:08;25.50;99.90
15386;DHT22;7791;47.246;9.648;2022-09-09T11:38:44;25.80;99.90
15386;DHT22;7791;47.246;9.648;2022-09-09T11:41:11;26.00;99.90
15386;DHT22;7791;47.246;9.648;2022-09-09T11:43:40;25.80;99.90
15386;DHT22;7791;47.246;9.648;2022-09-09T11:46:08;26.20;99.90
15386;DHT22;7791;47.246;9.648;2022-09-09T11:48:37;25.80;99.90
15386;DHT22;7791;47.246;9.648;2022-09-09T11:51:06;25.40;99.90
15386;DHT22;7791;47.246;9.648;2022-09-09T11:53:34;24.60;99.90
15386;DHT22;7791;47.246;9.648;2022-09-09T11:56:09;24.30;99.90
15386;DHT22;7791;47.246;9.648;2022-09-09T11:58:39;23.70;99.90
15386;DHT22;7791;47.246;9.648;2022-09-09T12:01:34;23.10;99.90
15386;DHT22;7791;47.246;9.648;2022-09-09T12:04:16;22.60;99.90
15386;DHT22;7791;47.246;9.648;2022-09-09T12:06:44;22.70;99.90
15386;DHT22;7791;47.246;9.648;2022-09-09T12:09:18;22.80;99.90
15386;DHT22;7791;47.246;9.648;2022-09-09T12:11:47;22.80;99.90
15386;DHT22;7791;47.246;9.648;2022-09-09T12:14:35;23.00;99.90
15386;DHT22;7791;47.246;9.648;2022-09-09T12:17:17;23.00;99.90
15386;DHT22;7791;47.246;9.648;2022-09-09T12:19:43;23.00;99.90
15386;DHT22;7791;47.246;9.648;2022-09-09T12:22:19;23.10;99.90
15386;DHT22;7791;47.246;9.648;2022-09-09T12:24:52;23.70;99.90
15386;DHT22;7791;47.246;9.648;2022-09-09T12:27:24;24.40;99.90
15386;DHT22;7791;47.246;9.648;2022-09-09T12:29:57;24.50;99.90
15386;DHT22;7791;47.246;9.648;2022-09-09T12:32:27;24.30;99.90
15386;DHT22;7791;47.246;9.648;2022-09-09T12:34:54;24.20;99.90
15386;DHT22;7791;47.246;9.648;2022-09-09T12:37:26;24.20;99.90
15386;DHT22;7791;47.246;9.648;2022-09-09T12:39:56;24.20;99.90
15386;DHT22;7791;47.246;9.648;2022-09-09T12:42:24;23.90;99.90
15386;DHT22;7791;47.246;9.648;2022-09-09T12:44:55;23.20;99.90
15386;DHT22;7791;47.246;9.648;2022-09-09T12:47:24;23.20;99.90
15386;DHT22;7791;47.246;9.648;2022-09-09T12:49:51;23.30;99.90
15386;DHT22;7791;47.246;9.648;2022-09-09T12:52:25;23.60;99.90
15386;DHT22;7791;47.246;9.648;2022-09-09T12:54:53;24.00;99.90
15386;DHT22;7791;47.246;9.648;2022-09-09T12:57:25;24.20;99.90
15386;DHT22;7791;47.246;9.648;2022-09-09T13:00:05;24.40;99.90
15386;DHT22;7791;47.246;9.648;2022-09-09T13:02:31;25.00;99.90
15386;DHT22;7791;47.246;9.648;2022-09-09T13:05:08;25.70;99.90
15386;DHT22;7791;47.246;9.648;2022-09-09T13:07:38;25.90;99.90
15386;DHT22;7791;47.246;9.648;2022-09-09T13:10:05;25.70;99.90
15386;DHT22;7791;47.246;9.648;2022-09-09T13:12:33;25.60;99.90
15386;DHT22;7791;47.246;9.648;2022-09-09T13:15:19;25.50;99.90
15386;DHT22;7791;47.246;9.648;2022-09-09T13:17:51;26.10;99.90
15386;DHT22;7791;47.246;9.648;2022-09-09T13:20:18;26.90;99.90
15386;DHT22;7791;47.246;9.648;2022-09-09T13:22:46;26.70;99.90
15386;DHT22;7791;47.246;9.648;2022-09-09T13:25:20;26.20;99.90
15386;DHT22;7791;47.246;9.648;2022-09-09T13:27:58;25.70;99.90
15386;DHT22;7791;47.246;9.648;2022-09-09T13:30:29;25.70;99.90
15386;DHT22;7791;47.246;9.648;2022-09-09T13:33:22;25.50;99.90
15386;DHT22;7791;47.246;9.648;2022-09-09T13:35:50;25.60;99.90
15386;DHT22;7791;47.246;9.648;2022-09-09T13:38:18;26.10;99.90
15386;DHT22;7791;47.246;9.648;2022-09-09T13:40:53;26.80;99.90
15386;DHT22;7791;47.246;9.648;2022-09-09T13:43:22;27.80;99.90
15386;DHT22;7791;47.246;9.648;2022-09-09T13:46:02;28.10;99.90
15386;DHT22;7791;47.246;9.648;2022-09-09T13:48:28;28.10;99.90
15386;DHT22;7791;47.246;9.648;2022-09-09T13:50:55;28.40;99.90
15386;DHT22;7791;47.246;9.648;2022-09-09T13:53:21;29.00;99.90
15386;DHT22;7791;47.246;9.648;2022-09-09T13:55:47;28.80;98.20
15386;DHT22;7791;47.246;9.648;2022-09-09T13:58:16;29.20;97.90
15386;DHT22;7791;47.246;9.648;2022-09-09T14:01:01;29.20;97.80
15386;DHT22;7791;47.246;9.648;2022-09-09T14:03:27;29.50;95.80
15386;DHT22;7791;47.246;9.648;2022-09-09T14:05:54;29.50;95.40
15386;DHT22;7791;47.246;9.648;2022-09-09T14:08:25;29.00;95.60
15386;DHT22;7791;47.246;9.648;2022-09-09T14:10:52;28.20;96.90
15386;DHT22;7791;47.246;9.648;2022-09-09T14:13:18;28.50;97.50
15386;DHT22;7791;47.246;9.648;2022-09-09T14:16:05;28.30;98.40
15386;DHT22;7791;47.246;9.648;2022-09-09T14:18:31;28.20;97.10
15386;DHT22;7791;47.246;9.648;2022-09-09T14:20:57;28.00;98.10
15386;DHT22;7791;47.246;9.648;2022-09-09T14:23:23;27.80;97.60
15386;DHT22;7791;47.246;9.648;2022-09-09T14:25:50;27.80;97.40
15386;DHT22;7791;47.246;9.648;2022-09-09T14:28:16;27.70;97.50
15386;DHT22;7791;47.246;9.648;2022-09-09T14:30:43;27.40;96.40
15386;DHT22;7791;47.246;9.648;2022-09-09T14:33:15;27.30;97.30
15386;DHT22;7791;47.246;9.648;2022-09-09T14:35:41;27.10;97.50
15386;DHT22;7791;47.246;9.648;2022-09-09T14:38:07;26.50;97.80
15386;DHT22;7791;47.246;9.648;2022-09-09T14:40:34;26.30;98.40
15386;DHT22;7791;47.246;9.648;2022-09-09T14:43:00;26.50;98.40
15386;DHT22;7791;47.246;9.648;2022-09-09T14:45:26;26.60;99.00
15386;DHT22;7791;47.246;9.648;2022-09-09T14:48:01;25.70;99.90
15386;DHT22;7791;47.246;9.648;2022-09-09T14:50:28;25.80;99.90
15386;DHT22;7791;47.246;9.648;2022-09-09T14:52:54;25.90;99.90
15386;DHT22;7791;47.246;9.648;2022-09-09T14:55:20;25.60;99.90
15386;DHT22;7791;47.246;9.648;2022-09-09T14:57:46;24.90;99.90
15386;DHT22;7791;47.246;9.648;2022-09-09T15:00:12;24.10;99.90
15386;DHT22;7791;47.246;9.648;2022-09-09T15:02:38;23.90;99.90
15386;DHT22;7791;47.246;9.648;2022-09-09T15:05:04;24.40;99.90
15386;DHT22;7791;47.246;9.648;2022-09-09T15:07:32;24.80;99.90
15386;DHT22;7791;47.246;9.648;2022-09-09T15:09:58;24.80;99.90
15386;DHT22;7791;47.246;9.648;2022-09-09T15:12:24;24.70;99.90
15386;DHT22;7791;47.246;9.648;2022-09-09T15:14:50;25.00;99.90
15386;DHT22;7791;47.246;9.648;2022-09-09T15:17:16;25.40;99.90
15386;DHT22;7791;47.246;9.648;2022-09-09T15:19:42;25.70;99.90
15386;DHT22;7791;47.246;9.648;2022-09-09T15:22:08;25.50;99.90
15386;DHT22;7791;47.246;9.648;2022-09-09T15:24:35;24.60;99.90
15386;DHT22;7791;47.246;9.648;2022-09-09T15:27:02;24.00;99.90
15386;DHT22;7791;47.246;9.648;2022-09-09T15:29:28;23.60;99.90
15386;DHT22;7791;47.246;9.648;2022-09-09T15:31:55;23.40;99.90
15386;DHT22;7791;47.246;9.648;2022-09-09T15:34:21;23.20;99.90
15386;DHT22;7791;47.246;9.648;2022-09-09T15:36:47;22.80;99.90
15386;DHT22;7791;47.246;9.648;2022-09-09T15:39:15;22.80;99.90
15386;DHT22;7791;47.246;9.648;2022-09-09T15:41:43;22.80;99.90
15386;DHT22;7791;47.246;9.648;2022-09-09T15:44:09;22.70;99.90
15386;DHT22;7791;47.246;9.648;2022-09-09T15:46:37;22.70;99.90
15386;DHT22;7791;47.246;9.648;2022-09-09T15:49:08;22.70;99.90
15386;DHT22;7791;47.246;9.648;2022-09-09T15:51:35;22.70;99.90
15386;DHT22;7791;47.246;9.648;2022-09-09T15:54:01;22.60;99.90
15386;DHT22;7791;47.246;9.648;2022-09-09T15:56:28;22.50;99.90
15386;DHT22;7791;47.246;9.648;2022-09-09T15:58:57;22.50;99.90
15386;DHT22;7791;47.246;9.648;2022-09-09T16:01:26;22.50;99.90
15386;DHT22;7791;47.246;9.648;2022-09-09T16:03:53;22.40;99.90
15386;DHT22;7791;47.246;9.648;2022-09-09T16:06:20;22.30;99.90
15386;DHT22;7791;47.246;9.648;2022-09-09T16:08:47;22.20;99.90
15386;DHT22;7791;47.246;9.648;2022-09-09T16:11:14;22.20;99.90
15386;DHT22;7791;47.246;9.648;2022-09-09T16:13:40;22.20;99.90
15386;DHT22;7791;47.246;9.648;2022-09-09T16:16:10;22.20;99.90
15386;DHT22;7791;47.246;9.648;2022-09-09T16:18:37;22.00;99.90
15386;DHT22;7791;47.246;9.648;2022-09-09T16:21:05;22.00;99.90
15386;DHT22;7791;47.246;9.648;2022-09-09T16:23:32;21.90;99.90
15386;DHT22;7791;47.246;9.648;2022-09-09T16:26:01;21.90;99.90
15386;DHT22;7791;47.246;9.648;2022-09-09T16:28:27;21.80;99.90
15386;DHT22;7791;47.246;9.648;2022-09-09T16:30:53;21.60;99.90
15386;DHT22;7791;47.246;9.648;2022-09-09T16:33:20;21.50;99.90
15386;DHT22;7791;47.246;9.648;2022-09-09T16:35:46;21.30;99.90
15386;DHT22;7791;47.246;9.648;2022-09-09T16:38:11;21.30;99.90
15386;DHT22;7791;47.246;9.648;2022-09-09T16:40:40;21.10;99.90
15386;DHT22;7791;47.246;9.648;2022-09-09T16:43:06;21.00;99.90
15386;DHT22;7791;47.246;9.648;2022-09-09T16:45:32;20.90;99.90
15386;DHT22;7791;47.246;9.648;2022-09-09T16:47:57;20.80;99.90
15386;DHT22;7791;47.246;9.648;2022-09-09T16:50:25;20.70;99.90
15386;DHT22;7791;47.246;9.648;2022-09-09T16:52:52;20.70;99.90
15386;DHT22;7791;47.246;9.648;2022-09-09T16:55:19;20.70;99.90
15386;DHT22;7791;47.246;9.648;2022-09-09T16:57:44;20.70;99.90
15386;DHT22;7791;47.246;9.648;2022-09-09T17:00:11;20.60;99.90
15386;DHT22;7791;47.246;9.648;2022-09-09T17:02:37;20.40;99.90
15386;DHT22;7791;47.246;9.648;2022-09-09T17:05:03;20.20;99.90
15386;DHT22;7791;47.246;9.648;2022-09-09T17:07:31;20.10;99.90
15386;DHT22;7791;47.246;9.648;2022-09-09T17:09:57;20.00;99.90
15386;DHT22;7791;47.246;9.648;2022-09-09T17:12:22;19.80;99.90
15386;DHT22;7791;47.246;9.648;2022-09-09T17:14:50;19.70;99.90
15386;DHT22;7791;47.246;9.648;2022-09-09T17:17:16;19.60;99.90
15386;DHT22;7791;47.246;9.648;2022-09-09T17:19:43;19.50;99.90
15386;DHT22;7791;47.246;9.648;2022-09-09T17:22:08;19.50;99.90
15386;DHT22;7791;47.246;9.648;2022-09-09T17:24:36;19.30;99.90
15386;DHT22;7791;47.246;9.648;2022-09-09T17:27:02;19.30;99.90
15386;DHT22;7791;47.246;9.648;2022-09-09T17:29:27;19.20;99.90
15386;DHT22;7791;47.246;9.648;2022-09-09T17:31:53;19.10;99.90
15386;DHT22;7791;47.246;9.648;2022-09-09T17:34:21;18.90;99.90
15386;DHT22;7791;47.246;9.648;2022-09-09T17:36:47;18.90;99.90
15386;DHT22;7791;47.246;9.648;2022-09-09T17:39:13;18.80;99.90
15386;DHT22;7791;47.246;9.648;2022-09-09T17:41:40;18.70;99.90